createdAt,value
2022-12-18T00:00:14.306Z,13.60
2022-12-18T00:03:02.458Z,13.50
2022-12-18T00:05:51.151Z,13.30
2022-12-18T00:08:39.505Z,13.30
2022-12-18T00:11:29.526Z,13.20
2022-12-18T00:14:17.613Z,13.10
2022-12-18T00:17:06.912Z,13.00
2022-12-18T00:19:54.873Z,12.80
2022-12-18T00:22:42.871Z,12.80
2022-12-18T00:25:30.861Z,12.70
2022-12-18T00:28:18.832Z,12.60
2022-12-18T00:31:09.237Z,12.60
2022-12-18T00:33:59.280Z,12.60
2022-12-18T00:36:49.545Z,12.60
2022-12-18T00:39:37.553Z,12.80
2022-12-18T00:42:54.493Z,13.00
2022-12-18T00:45:42.894Z,13.20
2022-12-18T00:48:31.172Z,13.30
2022-12-18T00:51:20.547Z,13.50
2022-12-18T00:54:08.712Z,13.50
2022-12-18T00:56:57.005Z,13.60
2022-12-18T00:59:44.978Z,13.70
2022-12-18T01:02:33.432Z,13.70
2022-12-18T01:05:21.650Z,13.70
2022-12-18T01:08:11.090Z,13.70
2022-12-18T01:10:59.073Z,13.70
2022-12-18T01:13:47.189Z,13.60
2022-12-18T01:16:35.228Z,13.60
2022-12-18T01:19:23.341Z,13.50
2022-12-18T01:22:11.366Z,13.40
2022-12-18T01:25:00.636Z,13.40
2022-12-18T01:27:48.623Z,13.30
2022-12-18T01:30:36.604Z,13.20
2022-12-18T01:33:24.723Z,13.00
2022-12-18T01:36:22.185Z,13.00
2022-12-18T01:39:13.380Z,12.90
2022-12-18T01:42:11.433Z,12.80
2022-12-18T01:45:03.261Z,12.80
2022-12-18T01:47:54.288Z,12.70
2022-12-18T01:50:43.873Z,12.70
2022-12-18T01:53:32.342Z,12.70
2022-12-18T01:56:22.355Z,12.70
2022-12-18T01:59:13.549Z,12.90
2022-12-18T02:02:01.988Z,13.10
2022-12-18T02:04:50.800Z,13.30
2022-12-18T02:07:47.430Z,13.40
2022-12-18T02:10:41.440Z,13.50
2022-12-18T02:13:38.297Z,12.70
2022-12-18T02:16:36.603Z,13.60
2022-12-18T02:19:43.075Z,13.70
2022-12-18T02:22:42.895Z,13.70
2022-12-18T02:25:46.432Z,13.70
2022-12-18T02:28:38.247Z,13.70
2022-12-18T02:31:29.087Z,13.70
2022-12-18T02:34:18.226Z,13.60
2022-12-18T02:37:12.523Z,13.50
2022-12-18T02:40:01.708Z,13.50
2022-12-18T02:42:49.945Z,13.30
2022-12-18T02:45:48.144Z,13.30
2022-12-18T02:48:36.979Z,13.30
2022-12-18T02:51:31.387Z,13.20
2022-12-18T02:54:28.585Z,13.10
2022-12-18T02:57:22.417Z,13.00
2022-12-18T03:00:14.508Z,13.00
2022-12-18T03:03:09.822Z,12.80
2022-12-18T03:06:03.905Z,12.80
2022-12-18T03:08:55.918Z,12.70
2022-12-18T03:12:06.425Z,12.60
2022-12-18T03:15:01.273Z,12.60
2022-12-18T03:17:58.265Z,12.50
2022-12-18T03:20:51.101Z,12.50
2022-12-18T03:23:44.583Z,12.50
2022-12-18T03:26:34.398Z,12.60
2022-12-18T03:29:26.544Z,12.70
2022-12-18T03:32:19.301Z,12.90
2022-12-18T03:35:09.947Z,13.00
2022-12-18T03:37:59.830Z,13.10
2022-12-18T03:40:58.163Z,13.20
2022-12-18T03:43:54.033Z,13.20
2022-12-18T03:46:49.028Z,13.20
2022-12-18T03:49:40.965Z,13.20
2022-12-18T03:52:32.463Z,13.20
2022-12-18T03:55:23.810Z,13.20
2022-12-18T03:58:15.088Z,13.10
2022-12-18T04:01:07.681Z,13.00
2022-12-18T04:03:56.985Z,13.00
2022-12-18T04:06:48.634Z,13.00
2022-12-18T04:09:38.517Z,12.90
2022-12-18T04:12:28.593Z,12.80
2022-12-18T04:15:16.790Z,12.70
2022-12-18T04:18:05.349Z,12.70
2022-12-18T04:20:53.366Z,12.70
2022-12-18T04:23:42.299Z,12.60
2022-12-18T04:26:30.602Z,12.50
2022-12-18T04:29:19.985Z,12.40
2022-12-18T04:32:08.018Z,12.40
2022-12-18T04:34:56.019Z,12.60
2022-12-18T04:37:44.024Z,12.80
2022-12-18T04:40:32.010Z,12.90
2022-12-18T04:43:20.116Z,13.10
2022-12-18T04:46:10.778Z,13.20
2022-12-18T04:48:58.859Z,13.30
2022-12-18T04:51:46.879Z,13.40
2022-12-18T04:54:34.866Z,13.50
2022-12-18T04:57:22.904Z,13.50
2022-12-18T05:00:12.088Z,13.50
2022-12-18T05:03:03.010Z,13.40
2022-12-18T05:05:51.770Z,13.40
2022-12-18T05:08:39.794Z,13.30
2022-12-18T05:11:27.822Z,13.30
2022-12-18T05:14:16.017Z,13.20
2022-12-18T05:17:04.011Z,13.10
2022-12-18T05:19:53.369Z,13.00
2022-12-18T05:22:41.367Z,12.80
2022-12-18T05:25:29.641Z,12.90
2022-12-18T05:28:17.986Z,12.80
2022-12-18T05:31:06.888Z,12.70
2022-12-18T05:33:54.975Z,12.60
2022-12-18T05:36:44.514Z,12.60
2022-12-18T05:39:32.649Z,12.60
2022-12-18T05:42:20.649Z,12.60
2022-12-18T05:45:09.370Z,12.60
2022-12-18T05:47:57.485Z,12.60
2022-12-18T05:50:47.522Z,12.70
2022-12-18T05:53:38.168Z,12.90
2022-12-18T05:56:26.450Z,13.00
2022-12-18T05:59:14.553Z,13.10
2022-12-18T06:02:02.707Z,13.20
2022-12-18T06:04:50.888Z,13.30
2022-12-18T06:07:38.893Z,13.30
2022-12-18T06:10:28.324Z,13.30
2022-12-18T06:13:16.353Z,13.30
2022-12-18T06:16:05.545Z,13.20
2022-12-18T06:18:53.579Z,13.20
2022-12-18T06:21:41.560Z,13.10
2022-12-18T06:24:29.842Z,13.10
2022-12-18T06:27:19.163Z,13.00
2022-12-18T06:30:09.093Z,13.00
2022-12-18T06:32:57.666Z,12.80
2022-12-18T06:35:45.658Z,12.80
2022-12-18T06:38:33.932Z,12.70
2022-12-18T06:41:22.964Z,12.60
2022-12-18T06:44:12.346Z,12.60
2022-12-18T06:47:00.758Z,12.60
2022-12-18T06:49:48.763Z,12.60
2022-12-18T06:52:37.705Z,12.60
2022-12-18T06:55:25.725Z,12.70
2022-12-18T06:58:13.829Z,12.80
2022-12-18T07:01:04.310Z,13.00
2022-12-18T07:03:55.244Z,13.10
2022-12-18T07:06:43.290Z,13.20
2022-12-18T07:09:31.309Z,13.30
2022-12-18T07:12:19.926Z,13.30
2022-12-18T07:15:09.082Z,13.30
2022-12-18T07:17:58.418Z,13.30
2022-12-18T07:20:46.734Z,13.30
2022-12-18T07:23:37.069Z,13.20
2022-12-18T07:26:25.408Z,13.20
2022-12-18T07:29:13.418Z,13.10
2022-12-18T07:32:01.514Z,13.00
2022-12-18T07:34:50.877Z,13.00
2022-12-18T07:37:38.873Z,12.90
2022-12-18T07:40:26.866Z,12.90
2022-12-18T07:43:14.900Z,12.80
2022-12-18T07:46:03.641Z,12.70
2022-12-18T07:48:51.859Z,12.60
2022-12-18T07:51:41.236Z,12.60
2022-12-18T07:54:29.845Z,12.50
2022-12-18T07:57:48.417Z,12.50
2022-12-18T08:00:26.062Z,12.60
2022-12-18T08:03:17.421Z,12.80
2022-12-18T08:06:07.598Z,13.10
2022-12-18T08:08:57.779Z,13.20
2022-12-18T08:11:46.220Z,13.40
2022-12-18T08:14:34.228Z,13.60
2022-12-18T08:17:22.308Z,13.60
2022-12-18T08:20:11.442Z,13.70
2022-12-18T08:22:59.479Z,13.80
2022-12-18T08:25:49.023Z,13.80
2022-12-18T08:28:37.028Z,13.80
2022-12-18T08:31:26.400Z,13.80
2022-12-18T08:34:14.433Z,13.80
2022-12-18T08:37:02.580Z,13.80
2022-12-18T08:39:50.576Z,13.70
2022-12-18T08:42:57.429Z,13.60
2022-12-18T08:45:45.488Z,13.50
2022-12-18T08:48:33.753Z,13.40
2022-12-18T08:51:22.141Z,13.30
2022-12-18T08:54:13.652Z,13.20
2022-12-18T08:57:01.662Z,13.10
2022-12-18T08:59:51.006Z,13.00
2022-12-18T09:02:39.380Z,12.50
2022-12-18T09:05:27.530Z,12.80
2022-12-18T09:08:15.649Z,12.70
2022-12-18T09:11:04.207Z,12.60
2022-12-18T09:13:53.057Z,12.60
2022-12-18T09:16:42.424Z,12.60
2022-12-18T09:19:30.553Z,12.70
2022-12-18T09:22:18.544Z,12.80
2022-12-18T09:25:08.812Z,13.00
2022-12-18T09:27:56.976Z,13.20
2022-12-18T09:30:47.138Z,13.30
2022-12-18T09:33:37.014Z,13.40
2022-12-18T09:36:25.150Z,13.50
2022-12-18T09:39:13.150Z,13.50
2022-12-18T09:42:01.312Z,13.60
2022-12-18T09:44:52.508Z,13.60
2022-12-18T09:47:42.454Z,13.60
2022-12-18T09:50:36.027Z,13.60
2022-12-18T09:53:30.085Z,13.60
2022-12-18T09:56:23.612Z,13.50
2022-12-18T09:59:23.071Z,13.50
2022-12-18T10:02:17.897Z,13.40
2022-12-18T10:05:08.699Z,13.30
2022-12-18T10:08:07.440Z,13.20
2022-12-18T10:10:59.722Z,13.20
2022-12-18T10:13:54.028Z,13.00
2022-12-18T10:16:49.533Z,13.00
2022-12-18T10:19:49.926Z,12.90
2022-12-18T10:22:48.443Z,12.90
2022-12-18T10:25:47.406Z,12.90
2022-12-18T10:28:38.157Z,12.90
2022-12-18T10:31:27.079Z,12.90
2022-12-18T10:34:15.489Z,12.90
2022-12-18T10:37:08.686Z,13.00
2022-12-18T10:40:18.212Z,13.20
2022-12-18T10:43:14.130Z,13.30
2022-12-18T10:46:06.693Z,13.40
2022-12-18T10:48:57.100Z,13.40
2022-12-18T10:51:45.178Z,13.50
2022-12-18T10:54:35.743Z,13.50
2022-12-18T10:57:35.162Z,13.50
2022-12-18T11:00:28.583Z,13.50
2022-12-18T11:03:33.436Z,13.50
2022-12-18T11:06:24.999Z,13.40
2022-12-18T11:09:22.060Z,13.30
2022-12-18T11:12:18.917Z,13.30
2022-12-18T11:15:08.045Z,13.20
2022-12-18T11:17:57.603Z,13.20
2022-12-18T11:20:58.277Z,13.10
2022-12-18T11:23:51.974Z,13.00
2022-12-18T11:26:40.498Z,12.90
2022-12-18T11:29:35.974Z,12.80
2022-12-18T11:32:33.405Z,12.80
2022-12-18T11:35:28.105Z,12.70
2022-12-18T11:38:24.234Z,12.70
2022-12-18T11:41:21.564Z,12.60
2022-12-18T11:44:12.282Z,12.70
2022-12-18T11:47:05.196Z,12.80
2022-12-18T11:49:54.755Z,13.10
2022-12-18T11:52:44.215Z,13.40
2022-12-18T11:55:41.745Z,13.60
2022-12-18T11:58:44.125Z,13.80
2022-12-18T12:01:44.368Z,13.90
2022-12-18T12:04:44.266Z,14.00
2022-12-18T12:07:44.098Z,14.10
2022-12-18T12:10:45.099Z,14.10
2022-12-18T12:13:43.565Z,14.10
2022-12-18T12:16:39.839Z,14.10
2022-12-18T12:19:44.651Z,14.10
2022-12-18T12:22:43.446Z,14.10
2022-12-18T12:25:40.571Z,14.00
2022-12-18T12:28:43.762Z,14.00
2022-12-18T12:31:45.767Z,13.90
2022-12-18T12:34:38.922Z,13.70
2022-12-18T12:37:36.007Z,13.60
2022-12-18T12:43:48.061Z,13.40
2022-12-18T12:46:41.333Z,13.30
2022-12-18T12:49:39.051Z,13.20
2022-12-18T12:52:35.386Z,13.10
2022-12-18T12:55:26.755Z,13.00
2022-12-18T12:58:25.419Z,13.00
2022-12-18T13:01:24.303Z,12.90
2022-12-18T13:04:22.540Z,12.90
2022-12-18T13:07:17.564Z,12.90
2022-12-18T13:10:27.243Z,13.10
2022-12-18T13:13:17.284Z,13.30
2022-12-18T13:16:11.551Z,13.60
2022-12-18T13:19:01.046Z,13.80
2022-12-18T13:21:55.827Z,13.90
2022-12-18T13:24:43.950Z,14.00
2022-12-18T13:28:13.617Z,14.10
2022-12-18T13:31:03.524Z,14.10
2022-12-18T13:37:42.687Z,14.20
2022-12-18T13:40:58.784Z,14.10
2022-12-18T13:43:49.098Z,14.10
2022-12-18T13:46:45.951Z,14.10
2022-12-18T13:49:40.380Z,14.00
2022-12-18T13:52:35.297Z,14.00
2022-12-18T13:55:25.091Z,13.90
2022-12-18T13:58:14.193Z,13.70
2022-12-18T14:01:05.604Z,13.70
2022-12-18T14:04:11.068Z,13.60
2022-12-18T14:07:04.601Z,13.50
2022-12-18T14:10:06.478Z,13.40
2022-12-18T14:13:08.931Z,13.30
2022-12-18T14:15:58.660Z,13.20
2022-12-18T14:18:50.452Z,13.10
2022-12-18T14:21:39.806Z,13.00
2022-12-18T14:24:28.838Z,13.00
2022-12-18T14:27:27.483Z,12.90
2022-12-18T14:30:27.279Z,12.90
2022-12-18T14:33:17.129Z,13.00
2022-12-18T14:36:07.001Z,13.20
2022-12-18T14:38:56.871Z,13.30
2022-12-18T14:41:44.923Z,13.40
2022-12-18T14:44:44.211Z,13.40
2022-12-18T14:47:38.612Z,13.50
2022-12-18T14:50:27.165Z,13.50
2022-12-18T14:53:24.691Z,13.60
2022-12-18T14:56:18.322Z,13.50
2022-12-18T14:59:18.047Z,13.50
2022-12-18T15:02:20.645Z,13.50
2022-12-18T15:05:20.230Z,13.40
2022-12-18T15:08:36.138Z,13.30
2022-12-18T15:11:29.648Z,13.20
2022-12-18T15:14:25.477Z,13.20
2022-12-18T15:17:20.542Z,13.10
2022-12-18T15:20:12.498Z,13.00
2022-12-18T15:23:00.644Z,12.90
2022-12-18T15:25:50.661Z,12.90
2022-12-18T15:28:40.775Z,12.80
2022-12-18T15:31:35.735Z,12.80
2022-12-18T15:34:26.225Z,12.70
2022-12-18T15:37:14.234Z,12.90
2022-12-18T15:40:03.155Z,13.00
2022-12-18T15:43:12.194Z,13.30
2022-12-18T15:46:00.388Z,13.30
2022-12-18T15:48:50.137Z,13.40
2022-12-18T15:51:40.273Z,13.50
2022-12-18T15:54:46.328Z,13.50
2022-12-18T15:57:34.348Z,13.60
2022-12-18T16:00:22.457Z,13.60
2022-12-18T16:03:10.660Z,13.60
2022-12-18T16:05:59.355Z,13.60
2022-12-18T16:08:49.755Z,13.60
2022-12-18T16:11:41.772Z,13.40
2022-12-18T16:14:31.756Z,13.40
2022-12-18T16:17:20.134Z,13.30
2022-12-18T16:20:13.846Z,13.20
2022-12-18T16:23:02.375Z,13.10
2022-12-18T16:25:52.579Z,13.10
2022-12-18T16:28:43.818Z,13.00
2022-12-18T16:31:36.278Z,12.90
2022-12-18T16:34:28.768Z,12.80
2022-12-18T16:37:18.066Z,12.80
2022-12-18T16:40:09.686Z,12.70
2022-12-18T16:42:59.038Z,12.70
2022-12-18T16:45:47.036Z,12.70
2022-12-18T16:48:35.096Z,12.90
2022-12-18T16:51:23.153Z,13.20
2022-12-18T16:54:15.958Z,13.50
2022-12-18T16:57:06.847Z,13.70
2022-12-18T17:00:02.954Z,13.90
2022-12-18T17:02:53.085Z,14.10
2022-12-18T17:05:41.307Z,14.20
2022-12-18T17:08:29.336Z,14.20
2022-12-18T17:11:17.342Z,14.30
2022-12-18T17:14:08.090Z,14.30
2022-12-18T17:17:20.305Z,14.30
2022-12-18T17:20:06.434Z,14.30
2022-12-18T17:22:54.455Z,14.30
2022-12-18T17:25:43.467Z,14.30
2022-12-18T17:28:32.182Z,14.20
2022-12-18T17:31:23.625Z,14.10
2022-12-18T17:34:13.825Z,14.00
2022-12-18T17:37:01.879Z,13.90
2022-12-18T17:39:50.388Z,13.90
2022-12-18T17:42:38.388Z,13.70
2022-12-18T17:45:26.399Z,13.60
2022-12-18T17:48:14.393Z,13.50
2022-12-18T17:51:05.617Z,13.40
2022-12-18T17:53:53.867Z,13.30
2022-12-18T17:56:41.968Z,13.20
2022-12-18T17:59:29.994Z,13.10
2022-12-18T18:02:18.200Z,13.00
2022-12-18T18:05:06.771Z,12.90
2022-12-18T18:07:57.124Z,12.90
2022-12-18T18:10:45.164Z,12.90
2022-12-18T18:13:51.194Z,12.90
2022-12-18T18:16:41.887Z,12.80
2022-12-18T18:19:30.020Z,12.90
2022-12-18T18:22:18.872Z,13.00
2022-12-18T18:25:10.110Z,13.00
2022-12-18T18:27:58.361Z,13.10
2022-12-18T18:30:46.345Z,13.10
2022-12-18T18:33:34.863Z,13.10
2022-12-18T18:36:23.458Z,13.10
2022-12-18T18:39:11.474Z,13.00
2022-12-18T18:42:00.861Z,12.90
2022-12-18T18:44:49.238Z,12.80
2022-12-18T18:47:37.323Z,12.80
2022-12-18T18:50:26.542Z,12.70
2022-12-18T18:53:14.548Z,12.70
2022-12-18T18:56:37.442Z,12.60
2022-12-18T18:59:11.837Z,12.60
2022-12-18T19:02:04.093Z,12.50
2022-12-18T19:04:52.902Z,12.50
2022-12-18T19:07:40.877Z,12.50
2022-12-18T19:10:28.923Z,12.50
2022-12-18T19:13:22.056Z,12.60
2022-12-18T19:16:11.521Z,12.80
2022-12-18T19:19:01.642Z,13.00
2022-12-18T19:21:50.422Z,13.00
2022-12-18T19:24:38.626Z,13.10
2022-12-18T19:27:26.670Z,13.20
2022-12-18T19:30:14.909Z,13.20
2022-12-18T19:33:19.849Z,13.20
2022-12-18T19:36:15.086Z,13.20
2022-12-18T19:39:07.959Z,13.20
2022-12-18T19:41:56.049Z,13.10
2022-12-18T19:44:44.073Z,13.00
2022-12-18T19:47:33.543Z,13.00
2022-12-18T19:50:22.960Z,13.00
2022-12-18T19:53:11.019Z,12.90
2022-12-18T19:55:59.064Z,12.80
2022-12-18T19:58:47.565Z,12.70
2022-12-18T20:01:35.669Z,12.70
2022-12-18T20:04:23.922Z,12.50
2022-12-18T20:07:13.629Z,12.50
2022-12-18T20:10:08.607Z,12.40
2022-12-18T20:12:57.150Z,12.40
2022-12-18T20:15:45.883Z,12.40
2022-12-18T20:18:33.938Z,12.50
2022-12-18T20:21:22.388Z,12.90
2022-12-18T20:24:12.250Z,13.20
2022-12-18T20:27:00.443Z,13.40
2022-12-18T20:29:48.597Z,13.70
2022-12-18T20:32:37.319Z,13.80
2022-12-18T20:35:28.068Z,13.90
2022-12-18T20:38:16.978Z,14.00
2022-12-18T20:41:10.782Z,14.10
2022-12-18T20:43:58.788Z,14.10
2022-12-18T20:46:47.114Z,14.10
2022-12-18T20:49:35.117Z,14.20
2022-12-18T20:52:23.397Z,14.10
2022-12-18T20:55:11.865Z,14.10
2022-12-18T20:58:01.185Z,14.10
2022-12-18T21:00:49.261Z,14.00
2022-12-18T21:03:38.047Z,13.80
2022-12-18T21:06:26.418Z,13.80
2022-12-18T21:09:14.422Z,13.70
2022-12-18T21:12:20.018Z,13.60
2022-12-18T21:15:11.093Z,13.50
2022-12-18T21:17:59.114Z,13.30
2022-12-18T21:20:47.186Z,13.30
2022-12-18T21:23:35.541Z,13.10
2022-12-18T21:26:25.937Z,13.00
2022-12-18T21:29:16.921Z,12.90
2022-12-18T21:32:09.090Z,12.80
2022-12-18T21:34:57.214Z,12.80
2022-12-18T21:37:45.235Z,12.70
2022-12-18T21:40:33.244Z,12.60
2022-12-18T21:43:39.087Z,12.50
2022-12-18T21:46:27.152Z,12.50
2022-12-18T21:49:19.913Z,12.70
2022-12-18T21:52:08.141Z,12.90
2022-12-18T21:54:56.137Z,13.10
2022-12-18T21:57:44.162Z,13.30
2022-12-18T22:00:32.155Z,13.40
2022-12-18T22:03:20.443Z,13.60
2022-12-18T22:06:10.041Z,13.70
2022-12-18T22:08:58.037Z,13.80
2022-12-18T22:11:46.815Z,13.80
2022-12-18T22:14:34.853Z,13.80
2022-12-18T22:17:22.857Z,13.90
2022-12-18T22:20:12.461Z,13.90
2022-12-18T22:23:05.676Z,13.90
2022-12-18T22:25:54.326Z,13.80
2022-12-18T22:28:56.398Z,13.80
2022-12-18T22:31:44.498Z,13.70
2022-12-18T22:34:36.405Z,13.70
2022-12-18T22:37:24.780Z,13.60
2022-12-18T22:40:23.822Z,13.50
2022-12-18T22:43:13.390Z,13.50
2022-12-18T22:46:04.513Z,13.40
2022-12-18T22:48:52.596Z,13.20
2022-12-18T22:51:40.845Z,13.20
2022-12-18T22:54:28.880Z,13.10
2022-12-18T22:57:18.218Z,13.00
2022-12-18T23:00:07.300Z,12.90
2022-12-18T23:03:00.292Z,12.90
2022-12-18T23:05:49.056Z,12.70
2022-12-18T23:08:38.409Z,12.70
2022-12-18T23:11:27.599Z,12.60
2022-12-18T23:14:16.999Z,12.50
2022-12-18T23:17:04.970Z,12.50
2022-12-18T23:19:52.956Z,12.60
2022-12-18T23:22:40.945Z,12.80
2022-12-18T23:25:28.940Z,12.90
2022-12-18T23:28:16.931Z,13.10
2022-12-18T23:31:08.336Z,13.20
2022-12-18T23:33:57.913Z,13.40
2022-12-18T23:36:47.155Z,13.40
2022-12-18T23:39:36.444Z,13.50
2022-12-18T23:42:24.437Z,13.60
2022-12-18T23:45:17.853Z,13.60
2022-12-18T23:48:07.737Z,13.60
2022-12-18T23:50:55.769Z,13.60
2022-12-18T23:53:43.925Z,13.60
2022-12-18T23:56:35.554Z,13.60
2022-12-18T23:59:25.571Z,13.50
